createdAt,value
2023-03-13T00:00:38.225Z,0.00
2023-03-13T00:01:38.165Z,0.00
2023-03-13T00:02:38.164Z,0.00
2023-03-13T00:03:38.142Z,0.00
2023-03-13T00:04:38.208Z,0.00
2023-03-13T00:05:38.167Z,0.00
2023-03-13T00:06:38.121Z,0.00
2023-03-13T00:07:38.129Z,0.00
2023-03-13T00:08:38.081Z,0.00
2023-03-13T00:09:38.065Z,0.00
2023-03-13T00:10:38.132Z,0.00
2023-03-13T00:11:38.054Z,0.00
2023-03-13T00:12:38.158Z,0.00
2023-03-13T00:13:38.046Z,0.00
2023-03-13T00:14:38.032Z,0.00
2023-03-13T00:15:38.040Z,0.00
2023-03-13T00:16:38.075Z,0.00
2023-03-13T00:17:37.994Z,0.00
2023-03-13T00:18:37.976Z,0.00
2023-03-13T00:19:37.975Z,0.00
2023-03-13T00:20:37.994Z,0.00
2023-03-13T00:21:37.982Z,0.00
2023-03-13T00:22:37.934Z,0.00
2023-03-13T00:23:37.932Z,0.00
2023-03-13T00:24:37.915Z,0.00
2023-03-13T00:25:37.931Z,0.00
2023-03-13T00:26:37.868Z,0.00
2023-03-13T00:27:37.866Z,0.00
2023-03-13T00:28:37.859Z,0.00
2023-03-13T00:29:37.857Z,0.00
2023-03-13T00:30:37.933Z,0.00
2023-03-13T00:31:37.840Z,0.00
2023-03-13T00:32:37.880Z,0.00
2023-03-13T00:33:37.802Z,0.00
2023-03-13T00:34:37.787Z,0.00
2023-03-13T00:35:37.872Z,0.00
2023-03-13T00:36:37.763Z,0.00
2023-03-13T00:37:37.762Z,0.00
2023-03-13T00:38:37.741Z,0.00
2023-03-13T00:39:37.734Z,0.00
2023-03-13T00:40:37.756Z,0.00
2023-03-13T00:41:37.734Z,0.00
2023-03-13T00:42:37.727Z,0.00
2023-03-13T00:43:37.720Z,0.00
2023-03-13T00:44:37.684Z,0.00
2023-03-13T00:45:37.828Z,0.00
2023-03-13T00:46:37.699Z,0.00
2023-03-13T00:47:37.685Z,0.00
2023-03-13T00:48:37.634Z,0.00
2023-03-13T00:49:37.631Z,0.00
2023-03-13T00:50:37.655Z,0.00
2023-03-13T00:51:37.615Z,0.00
2023-03-13T00:52:37.591Z,0.00
2023-03-13T00:53:37.590Z,0.00
2023-03-13T00:54:37.562Z,0.00
2023-03-13T00:55:37.593Z,0.00
2023-03-13T00:56:37.525Z,0.00
2023-03-13T00:57:37.520Z,0.00
2023-03-13T00:58:37.571Z,0.00
2023-03-13T00:59:37.512Z,0.00
2023-03-13T01:00:37.544Z,0.00
2023-03-13T01:01:37.502Z,0.00
2023-03-13T01:02:37.618Z,0.00
2023-03-13T01:03:37.492Z,0.00
2023-03-13T01:04:37.446Z,0.00
2023-03-13T01:05:37.483Z,0.00
2023-03-13T01:06:37.444Z,0.00
2023-03-13T01:07:37.409Z,0.00
2023-03-13T01:08:37.411Z,0.00
2023-03-13T01:09:37.394Z,0.00
2023-03-13T01:10:37.435Z,0.00
2023-03-13T01:11:37.391Z,0.00
2023-03-13T01:12:37.382Z,0.00
2023-03-13T01:13:37.363Z,0.00
2023-03-13T01:14:37.350Z,0.00
2023-03-13T01:15:37.414Z,0.00
2023-03-13T01:16:37.308Z,0.00
2023-03-13T01:17:37.358Z,0.00
2023-03-13T01:18:37.299Z,0.00
2023-03-13T01:19:37.289Z,0.00
2023-03-13T01:20:37.306Z,0.00
2023-03-13T01:21:37.256Z,0.00
2023-03-13T01:22:37.259Z,0.00
2023-03-13T01:27:50.738Z,0.00
2023-03-13T01:28:50.727Z,0.00
2023-03-13T01:29:50.690Z,0.00
2023-03-13T01:30:50.729Z,0.00
2023-03-13T01:31:50.702Z,0.00
2023-03-13T01:32:50.739Z,0.00
2023-03-13T01:33:50.643Z,0.00
2023-03-13T01:34:50.673Z,0.00
2023-03-13T01:35:50.678Z,0.00
2023-03-13T01:36:50.664Z,0.00
2023-03-13T01:37:50.607Z,0.00
2023-03-13T01:38:50.602Z,0.00
2023-03-13T01:39:50.595Z,0.00
2023-03-13T01:40:50.559Z,0.00
2023-03-13T01:41:50.620Z,0.00
2023-03-13T01:42:50.625Z,0.00
2023-03-13T01:43:50.543Z,0.00
2023-03-13T01:44:50.536Z,0.00
2023-03-13T01:45:50.508Z,0.00
2023-03-13T01:46:50.530Z,0.00
2023-03-13T01:47:50.539Z,0.00
2023-03-13T01:48:50.491Z,0.00
2023-03-13T01:49:50.484Z,0.00
2023-03-13T01:50:50.468Z,0.00
2023-03-13T01:51:50.456Z,0.00
2023-03-13T01:52:50.481Z,0.00
2023-03-13T01:53:50.433Z,0.00
2023-03-13T01:54:50.412Z,0.00
2023-03-13T01:55:50.411Z,0.00
2023-03-13T01:56:50.407Z,0.00
2023-03-13T01:57:50.426Z,0.00
2023-03-13T01:58:50.388Z,0.00
2023-03-13T01:59:50.347Z,0.00
2023-03-13T02:00:50.353Z,0.00
2023-03-13T02:01:50.356Z,0.00
2023-03-13T02:02:50.399Z,0.00
2023-03-13T02:03:50.307Z,0.00
2023-03-13T02:04:50.297Z,0.00
2023-03-13T02:05:50.296Z,0.00
2023-03-13T02:06:50.271Z,0.00
2023-03-13T02:07:50.285Z,0.00
2023-03-13T02:08:50.255Z,0.00
2023-03-13T02:09:50.229Z,0.00
2023-03-13T02:10:50.243Z,0.00
2023-03-13T02:11:50.217Z,0.00
2023-03-13T02:12:50.240Z,0.00
2023-03-13T02:13:50.180Z,0.00
2023-03-13T02:14:50.185Z,0.00
2023-03-13T02:15:50.269Z,0.00
2023-03-13T02:16:50.149Z,0.00
2023-03-13T02:17:50.167Z,0.00
2023-03-13T02:18:50.125Z,0.00
2023-03-13T02:19:50.140Z,0.00
2023-03-13T02:20:50.109Z,0.00
2023-03-13T02:21:50.090Z,0.00
2023-03-13T02:22:50.123Z,0.00
2023-03-13T02:23:50.067Z,0.00
2023-03-13T02:24:50.056Z,0.00
2023-03-13T02:25:50.103Z,0.00
2023-03-13T02:26:50.058Z,0.00
2023-03-13T02:27:50.073Z,0.00
2023-03-13T02:28:50.016Z,0.00
2023-03-13T02:29:50.016Z,0.00
2023-03-13T02:30:49.993Z,0.00
2023-03-13T02:31:50.181Z,0.00
2023-03-13T02:32:50.061Z,0.00
2023-03-13T02:33:49.974Z,0.00
2023-03-13T02:34:49.979Z,0.00
2023-03-13T02:35:49.972Z,0.00
2023-03-13T02:36:49.925Z,0.00
2023-03-13T02:37:49.948Z,0.00
2023-03-13T02:38:49.918Z,0.00
2023-03-13T02:39:49.882Z,0.00
2023-03-13T02:40:49.867Z,0.00
2023-03-13T02:41:49.861Z,0.00
2023-03-13T02:42:49.903Z,0.00
2023-03-13T02:43:49.842Z,0.00
2023-03-13T02:44:49.850Z,0.00
2023-03-13T02:45:49.812Z,0.00
2023-03-13T02:46:49.988Z,0.00
2023-03-13T02:47:49.840Z,0.00
2023-03-13T02:48:49.770Z,0.00
2023-03-13T02:49:49.763Z,0.00
2023-03-13T02:50:49.756Z,0.00
2023-03-13T02:51:49.737Z,0.00
2023-03-13T02:52:49.883Z,0.00
2023-03-13T02:53:49.730Z,0.00
2023-03-13T02:54:49.710Z,0.00
2023-03-13T02:55:49.701Z,0.00
2023-03-13T02:56:49.708Z,0.00
2023-03-13T02:57:49.719Z,0.00
2023-03-13T02:58:50.652Z,0.00
2023-03-13T02:59:49.667Z,0.00
2023-03-13T03:00:49.738Z,0.00
2023-03-13T03:01:49.632Z,0.00
2023-03-13T03:02:49.663Z,0.00
2023-03-13T03:03:49.739Z,0.00
2023-03-13T03:04:49.606Z,0.00
2023-03-13T03:05:49.598Z,0.00
2023-03-13T03:06:49.577Z,0.00
2023-03-13T03:07:49.588Z,0.00
2023-03-13T03:08:49.599Z,0.00
2023-03-13T03:09:49.559Z,0.00
2023-03-13T03:10:49.537Z,0.00
2023-03-13T03:11:49.508Z,0.00
2023-03-13T03:12:49.520Z,0.00
2023-03-13T03:13:49.555Z,0.00
2023-03-13T03:14:49.496Z,0.00
2023-03-13T03:15:49.463Z,0.00
2023-03-13T03:16:49.510Z,0.00
2023-03-13T03:17:49.487Z,0.00
2023-03-13T03:18:49.473Z,0.00
2023-03-13T03:19:49.422Z,0.00
2023-03-13T03:20:49.434Z,0.00
2023-03-13T03:21:49.399Z,0.00
2023-03-13T03:22:49.384Z,0.00
2023-03-13T03:23:49.411Z,0.00
2023-03-13T03:24:49.356Z,0.00
2023-03-13T03:25:49.351Z,0.00
2023-03-13T03:26:49.344Z,0.00
2023-03-13T03:27:49.341Z,0.00
2023-03-13T03:28:49.348Z,0.00
2023-03-13T03:29:49.302Z,0.00
2023-03-13T03:30:49.291Z,0.00
2023-03-13T03:31:49.320Z,0.00
2023-03-13T03:32:49.334Z,0.00
2023-03-13T03:33:49.293Z,0.00
2023-03-13T03:34:49.256Z,0.00
2023-03-13T03:35:49.295Z,0.00
2023-03-13T03:36:49.248Z,0.00
2023-03-13T03:37:49.220Z,0.00
2023-03-13T03:38:49.262Z,0.00
2023-03-13T03:39:49.204Z,0.00
2023-03-13T03:40:49.167Z,0.00
2023-03-13T03:41:49.165Z,0.00
2023-03-13T03:42:49.149Z,0.00
2023-03-13T03:43:49.174Z,0.00
2023-03-13T03:44:49.137Z,0.00
2023-03-13T03:45:49.146Z,0.00
2023-03-13T03:46:49.183Z,0.00
2023-03-13T03:47:49.088Z,0.00
2023-03-13T03:48:49.107Z,0.00
2023-03-13T03:49:49.086Z,0.00
2023-03-13T03:50:49.058Z,0.00
2023-03-13T03:51:49.066Z,0.00
2023-03-13T03:52:49.024Z,0.00
2023-03-13T03:53:49.054Z,0.00
2023-03-13T03:54:49.011Z,0.00
2023-03-13T03:55:49.007Z,0.00
2023-03-13T03:56:48.995Z,0.00
2023-03-13T03:57:48.979Z,0.00
2023-03-13T03:58:48.970Z,0.00
2023-03-13T03:59:49.016Z,0.00
2023-03-13T04:00:48.960Z,0.00
2023-03-13T04:01:48.987Z,0.00
2023-03-13T04:02:48.955Z,0.00
2023-03-13T04:03:49.004Z,0.00
2023-03-13T04:04:48.937Z,0.00
2023-03-13T04:05:48.895Z,0.00
2023-03-13T04:06:48.867Z,0.00
2023-03-13T04:07:48.866Z,0.00
2023-03-13T04:08:48.843Z,0.00
2023-03-13T04:09:48.870Z,0.00
2023-03-13T04:10:48.824Z,0.00
2023-03-13T04:11:48.845Z,0.00
2023-03-13T04:12:48.796Z,0.00
2023-03-13T04:13:48.799Z,0.00
2023-03-13T04:14:48.837Z,0.00
2023-03-13T04:15:48.806Z,0.00
2023-03-13T04:16:48.855Z,0.00
2023-03-13T04:17:48.753Z,0.00
2023-03-13T04:18:48.732Z,0.00
2023-03-13T04:19:48.777Z,0.00
2023-03-13T04:20:48.717Z,0.00
2023-03-13T04:21:48.712Z,0.00
2023-03-13T04:22:48.697Z,0.00
2023-03-13T04:23:48.710Z,0.00
2023-03-13T04:24:48.699Z,0.00
2023-03-13T04:25:48.663Z,0.00
2023-03-13T04:26:48.647Z,0.00
2023-03-13T04:27:48.637Z,0.00
2023-03-13T04:28:48.624Z,0.00
2023-03-13T04:29:48.651Z,0.00
2023-03-13T04:30:48.660Z,0.00
2023-03-13T04:31:48.594Z,0.00
2023-03-13T04:32:48.609Z,0.00
2023-03-13T04:33:48.579Z,0.00
2023-03-13T04:34:48.587Z,0.00
2023-03-13T04:35:48.599Z,0.00
2023-03-13T04:36:48.536Z,0.00
2023-03-13T04:37:48.525Z,0.00
2023-03-13T04:38:48.513Z,0.00
2023-03-13T04:39:48.528Z,0.00
2023-03-13T04:40:48.503Z,0.00
2023-03-13T04:41:48.482Z,0.00
2023-03-13T04:42:48.474Z,0.00
2023-03-13T04:43:48.457Z,0.00
2023-03-13T04:44:48.486Z,0.00
2023-03-13T04:45:48.465Z,0.00
2023-03-13T04:46:48.426Z,0.00
2023-03-13T04:47:48.465Z,0.00
2023-03-13T04:48:48.404Z,0.00
2023-03-13T04:49:48.434Z,0.00
2023-03-13T04:50:48.389Z,0.00
2023-03-13T04:51:48.368Z,0.00
2023-03-13T04:52:49.645Z,4.00
2023-03-13T04:53:48.362Z,4.00
2023-03-13T04:54:48.395Z,0.00
2023-03-13T04:55:48.317Z,4.00
2023-03-13T04:56:48.296Z,4.00
2023-03-13T04:57:48.305Z,8.00
2023-03-13T04:58:48.283Z,4.00
2023-03-13T04:59:48.282Z,8.00
2023-03-13T05:00:48.280Z,8.00
2023-03-13T05:01:48.258Z,8.00
2023-03-13T05:02:48.248Z,12.00
2023-03-13T05:03:48.357Z,16.00
2023-03-13T05:04:49.691Z,20.00
2023-03-13T05:05:48.379Z,20.00
2023-03-13T05:06:48.196Z,28.00
2023-03-13T05:07:48.191Z,32.00
2023-03-13T05:08:48.165Z,36.00
2023-03-13T05:09:48.154Z,40.00
2023-03-13T05:10:48.196Z,48.00
2023-03-13T05:11:48.144Z,56.00
2023-03-13T05:12:48.116Z,68.00
2023-03-13T05:13:48.248Z,80.00
2023-03-13T05:14:48.127Z,92.00
2023-03-13T05:15:48.187Z,108.00
2023-03-13T05:16:48.084Z,124.00
2023-03-13T05:17:48.112Z,144.00
2023-03-13T05:18:48.057Z,160.00
2023-03-13T05:19:48.051Z,176.00
2023-03-13T05:20:48.061Z,192.00
2023-03-13T05:21:48.019Z,212.00
2023-03-13T05:22:48.009Z,224.00
2023-03-13T05:23:48.004Z,252.00
2023-03-13T05:24:47.992Z,280.00
2023-03-13T05:25:48.015Z,308.00
2023-03-13T05:26:47.978Z,340.00
2023-03-13T05:27:47.969Z,376.00
2023-03-13T05:28:47.941Z,420.00
2023-03-13T05:29:48.058Z,460.00
2023-03-13T05:30:48.019Z,508.00
2023-03-13T05:31:47.905Z,556.00
2023-03-13T05:32:47.928Z,596.00
2023-03-13T05:33:47.883Z,636.00
2023-03-13T05:34:47.863Z,676.00
2023-03-13T05:35:47.917Z,732.00
2023-03-13T05:36:47.856Z,788.00
2023-03-13T05:37:47.853Z,856.00
2023-03-13T05:38:47.819Z,932.00
2023-03-13T05:39:47.831Z,1008.00
2023-03-13T05:40:47.847Z,1048.00
2023-03-13T05:41:47.801Z,1048.00
2023-03-13T05:42:47.780Z,1032.00
2023-03-13T05:43:47.778Z,1012.00
2023-03-13T05:44:47.755Z,1012.00
2023-03-13T05:45:47.790Z,1024.00
2023-03-13T05:46:47.798Z,1052.00
2023-03-13T05:47:47.753Z,1088.00
2023-03-13T05:48:47.715Z,1140.00
2023-03-13T05:49:47.712Z,1208.00
2023-03-13T05:50:47.723Z,1300.00
2023-03-13T05:51:47.688Z,1428.00
2023-03-13T05:52:47.670Z,1600.00
2023-03-13T05:53:47.668Z,1788.00
2023-03-13T05:54:47.654Z,1980.00
2023-03-13T05:55:47.683Z,2168.00
2023-03-13T05:56:47.631Z,2392.00
2023-03-13T05:57:47.638Z,2648.00
2023-03-13T05:58:47.603Z,2900.00
2023-03-13T05:59:47.612Z,3120.00
2023-03-13T06:00:47.632Z,3304.00
2023-03-13T06:01:47.567Z,3468.00
2023-03-13T06:02:47.568Z,3632.00
2023-03-13T06:03:47.698Z,3768.00
2023-03-13T06:04:47.619Z,3836.00
2023-03-13T06:05:47.572Z,3788.00
2023-03-13T06:06:47.512Z,3592.00
2023-03-13T06:07:47.516Z,3328.00
2023-03-13T06:08:47.493Z,3120.00
2023-03-13T06:09:47.501Z,3028.00
2023-03-13T06:10:47.518Z,3024.00
2023-03-13T06:11:47.474Z,3040.00
2023-03-13T06:12:47.443Z,3100.00
2023-03-13T06:13:47.439Z,3244.00
2023-03-13T06:14:47.454Z,3484.00
2023-03-13T06:15:47.532Z,3756.00
2023-03-13T06:16:47.400Z,4008.00
2023-03-13T06:17:47.387Z,4240.00
2023-03-13T06:18:47.381Z,4464.00
2023-03-13T06:19:47.385Z,4644.00
2023-03-13T06:20:47.371Z,4752.00
2023-03-13T06:21:47.342Z,4720.00
2023-03-13T06:22:47.330Z,4612.00
2023-03-13T06:23:47.324Z,4600.00
2023-03-13T06:24:47.307Z,4700.00
2023-03-13T06:25:47.329Z,4960.00
2023-03-13T06:26:49.564Z,5312.00
2023-03-13T06:27:47.275Z,5620.00
2023-03-13T06:28:47.268Z,5816.00
2023-03-13T06:29:47.259Z,5980.00
2023-03-13T06:30:47.259Z,6216.00
2023-03-13T06:31:47.444Z,6464.00
2023-03-13T06:32:47.435Z,6640.00
2023-03-13T06:33:49.072Z,6736.00
2023-03-13T06:34:47.196Z,6820.00
2023-03-13T06:35:56.257Z,6900.00
2023-03-13T06:36:48.210Z,6936.00
2023-03-13T06:37:47.178Z,6916.00
2023-03-13T06:38:47.125Z,6848.00
2023-03-13T06:39:47.147Z,6660.00
2023-03-13T06:40:48.023Z,6440.00
2023-03-13T06:41:47.120Z,6240.00
2023-03-13T06:42:47.098Z,5972.00
2023-03-13T06:43:47.105Z,5616.00
2023-03-13T06:44:47.116Z,5252.00
2023-03-13T06:45:47.102Z,4896.00
2023-03-13T06:46:47.128Z,4568.00
2023-03-13T06:47:47.074Z,4196.00
2023-03-13T06:48:47.036Z,3768.00
2023-03-13T06:49:47.054Z,3504.00
2023-03-13T06:50:47.054Z,3484.00
2023-03-13T06:51:47.009Z,3496.00
2023-03-13T06:52:46.992Z,3592.00
2023-03-13T06:53:46.997Z,3776.00
2023-03-13T06:54:46.972Z,4052.00
2023-03-13T06:55:46.995Z,4556.00
2023-03-13T06:56:46.963Z,5176.00
2023-03-13T06:57:46.938Z,5744.00
2023-03-13T06:58:46.930Z,6168.00
2023-03-13T06:59:46.930Z,6376.00
2023-03-13T07:00:46.946Z,6516.00
2023-03-13T07:01:46.910Z,6688.00
2023-03-13T07:02:46.889Z,6820.00
2023-03-13T07:03:46.913Z,6808.00
2023-03-13T07:04:46.865Z,6608.00
2023-03-13T07:05:46.873Z,6328.00
2023-03-13T07:06:46.840Z,6100.00
2023-03-13T07:07:46.844Z,5892.00
2023-03-13T07:08:46.833Z,5764.00
2023-03-13T07:09:46.797Z,5740.00
2023-03-13T07:10:46.821Z,5748.00
2023-03-13T07:11:46.777Z,5672.00
2023-03-13T07:12:46.790Z,5532.00
2023-03-13T07:13:46.768Z,5328.00
2023-03-13T07:14:46.766Z,5152.00
2023-03-13T07:15:46.757Z,5140.00
2023-03-13T07:16:46.853Z,5288.00
2023-03-13T07:17:46.728Z,5404.00
2023-03-13T07:18:46.712Z,5488.00
2023-03-13T07:19:46.678Z,5640.00
2023-03-13T07:20:46.707Z,5928.00
2023-03-13T07:21:46.678Z,6240.00
2023-03-13T07:22:46.666Z,6444.00
2023-03-13T07:23:46.649Z,6656.00
2023-03-13T07:24:46.734Z,6836.00
2023-03-13T07:25:46.678Z,6968.00
2023-03-13T07:27:03.878Z,7108.00
2023-03-13T07:27:47.623Z,7544.00
2023-03-13T07:28:46.602Z,8284.00
2023-03-13T07:29:46.603Z,9000.00
2023-03-13T07:30:46.626Z,9840.00
2023-03-13T07:31:46.619Z,10728.00
2023-03-13T07:32:46.606Z,11572.00
2023-03-13T07:33:46.603Z,12528.00
2023-03-13T07:34:46.586Z,13188.00
2023-03-13T07:35:46.555Z,13364.00
2023-03-13T07:36:46.539Z,13284.00
2023-03-13T07:37:46.500Z,13220.00
2023-03-13T07:38:46.504Z,13308.00
2023-03-13T07:39:46.484Z,13876.00
2023-03-13T07:40:46.488Z,14420.00
2023-03-13T07:41:46.443Z,14744.00
2023-03-13T07:42:46.456Z,15020.00
2023-03-13T07:43:46.448Z,14668.00
2023-03-13T07:44:46.414Z,13780.00
2023-03-13T07:45:46.625Z,12616.00
2023-03-13T07:46:46.438Z,11328.00
2023-03-13T07:47:46.439Z,10392.00
2023-03-13T07:48:46.414Z,9956.00
2023-03-13T07:49:46.388Z,10100.00
2023-03-13T07:50:46.378Z,10448.00
2023-03-13T07:51:46.334Z,10672.00
2023-03-13T07:52:46.432Z,10540.00
2023-03-13T07:53:46.351Z,10136.00
2023-03-13T07:54:46.319Z,9916.00
2023-03-13T07:55:46.343Z,9936.00
2023-03-13T07:56:46.277Z,10260.00
2023-03-13T07:57:46.265Z,11080.00
2023-03-13T07:58:46.262Z,11988.00
2023-03-13T07:59:46.261Z,12916.00
2023-03-13T08:00:46.294Z,13768.00
2023-03-13T08:01:46.226Z,13844.00
2023-03-13T08:02:46.289Z,12828.00
2023-03-13T08:03:46.228Z,11480.00
2023-03-13T08:04:46.254Z,11216.00
2023-03-13T08:05:46.229Z,11384.00
2023-03-13T08:06:46.200Z,10696.00
2023-03-13T08:07:46.163Z,9184.00
2023-03-13T08:08:46.124Z,8208.00
2023-03-13T08:09:46.188Z,8072.00
2023-03-13T08:10:46.109Z,8240.00
2023-03-13T08:11:46.209Z,7900.00
2023-03-13T08:12:46.107Z,8112.00
2023-03-13T08:13:46.066Z,9268.00
2023-03-13T08:14:46.087Z,10352.00
2023-03-13T08:15:46.098Z,10692.00
2023-03-13T08:16:46.307Z,10672.00
2023-03-13T08:17:46.023Z,11320.00
2023-03-13T08:18:46.076Z,11048.00
2023-03-13T08:19:46.021Z,11260.00
2023-03-13T08:20:46.022Z,11160.00
2023-03-13T08:21:46.022Z,10556.00
2023-03-13T08:22:46.011Z,11448.00
2023-03-13T08:23:45.976Z,12232.00
2023-03-13T08:24:45.963Z,11736.00
2023-03-13T08:25:45.938Z,12224.00
2023-03-13T08:26:45.976Z,11212.00
2023-03-13T08:27:45.932Z,10148.00
2023-03-13T08:28:45.901Z,9168.00
2023-03-13T08:29:45.886Z,8912.00
2023-03-13T08:30:45.914Z,8808.00
2023-03-13T08:31:45.944Z,9424.00
2023-03-13T08:32:45.952Z,10364.00
2023-03-13T08:33:45.854Z,10584.00
2023-03-13T08:34:45.861Z,11048.00
2023-03-13T08:35:45.884Z,12160.00
2023-03-13T08:36:45.851Z,12812.00
2023-03-13T08:37:45.821Z,12680.00
2023-03-13T08:38:46.416Z,12316.00
2023-03-13T08:39:45.777Z,13244.00
2023-03-13T08:40:45.766Z,13220.00
2023-03-13T08:41:45.776Z,12520.00
2023-03-13T08:42:45.749Z,11540.00
2023-03-13T08:43:45.736Z,10428.00
2023-03-13T08:44:45.718Z,9576.00
2023-03-13T08:45:45.783Z,8680.00
2023-03-13T08:46:45.824Z,8152.00
2023-03-13T08:47:45.678Z,8060.00
2023-03-13T08:48:45.687Z,8180.00
2023-03-13T08:49:45.688Z,8216.00
2023-03-13T08:50:45.692Z,8216.00
2023-03-13T08:51:45.669Z,8312.00
2023-03-13T08:52:45.669Z,8424.00
2023-03-13T08:53:45.648Z,8348.00
2023-03-13T08:54:45.648Z,8128.00
2023-03-13T08:55:45.606Z,7968.00
2023-03-13T08:56:45.642Z,7992.00
2023-03-13T08:57:45.606Z,7940.00
2023-03-13T08:58:45.584Z,7564.00
2023-03-13T08:59:45.572Z,7220.00
2023-03-13T09:00:45.554Z,6876.00
2023-03-13T09:01:45.605Z,6956.00
2023-03-13T09:02:45.575Z,6432.00
2023-03-13T09:03:45.646Z,6424.00
2023-03-13T09:04:45.518Z,6576.00
2023-03-13T09:05:55.745Z,6400.00
2023-03-13T09:06:46.516Z,6648.00
2023-03-13T09:07:45.482Z,6656.00
2023-03-13T09:08:45.483Z,5420.00
2023-03-13T09:09:45.463Z,5372.00
2023-03-13T09:10:45.447Z,7032.00
2023-03-13T09:11:45.469Z,7240.00
2023-03-13T09:12:45.415Z,6768.00
2023-03-13T09:13:45.401Z,6748.00
2023-03-13T09:14:45.413Z,5576.00
2023-03-13T09:15:45.443Z,5128.00
2023-03-13T09:16:45.373Z,5104.00
2023-03-13T09:17:45.400Z,5064.00
2023-03-13T09:18:45.392Z,5584.00
2023-03-13T09:19:57.843Z,6860.00
2023-03-13T09:20:48.034Z,7280.00
2023-03-13T09:21:45.320Z,7344.00
2023-03-13T09:22:45.344Z,7252.00
2023-03-13T09:23:45.303Z,9136.00
2023-03-13T09:24:45.312Z,8656.00
2023-03-13T09:25:45.286Z,6864.00
2023-03-13T09:27:00.159Z,7352.00
2023-03-13T09:27:46.312Z,6696.00
2023-03-13T09:28:45.255Z,6656.00
2023-03-13T09:29:45.241Z,6596.00
2023-03-13T09:30:45.284Z,6996.00
2023-03-13T09:31:45.227Z,7060.00
2023-03-13T09:32:45.331Z,6656.00
2023-03-13T09:33:45.210Z,6880.00
2023-03-13T09:34:45.189Z,7816.00
2023-03-13T09:35:45.177Z,8532.00
2023-03-13T09:36:45.149Z,8260.00
2023-03-13T09:37:45.168Z,7328.00
2023-03-13T09:38:45.178Z,6764.00
2023-03-13T09:39:45.118Z,6704.00
2023-03-13T09:40:56.494Z,7244.00
2023-03-13T09:41:46.091Z,7656.00
2023-03-13T09:42:45.070Z,7988.00
2023-03-13T09:43:45.080Z,8952.00
2023-03-13T09:44:45.045Z,9640.00
2023-03-13T09:45:45.053Z,10764.00
2023-03-13T09:46:45.140Z,11912.00
2023-03-13T09:47:45.048Z,12416.00
2023-03-13T09:48:45.076Z,10500.00
2023-03-13T09:49:45.011Z,9464.00
2023-03-13T09:50:45.027Z,9188.00
2023-03-13T09:51:44.961Z,9464.00
2023-03-13T09:52:44.976Z,10100.00
2023-03-13T09:53:44.956Z,10692.00
2023-03-13T09:54:44.991Z,10628.00
2023-03-13T09:55:44.933Z,13716.00
2023-03-13T09:56:44.949Z,14744.00
2023-03-13T09:57:44.945Z,13860.00
2023-03-13T09:58:44.887Z,10908.00
2023-03-13T09:59:44.912Z,9920.00
2023-03-13T10:00:44.889Z,10448.00
2023-03-13T10:01:44.981Z,11024.00
2023-03-13T10:02:44.843Z,10748.00
2023-03-13T10:03:44.874Z,9868.00
2023-03-13T10:04:44.888Z,10560.00
2023-03-13T10:05:44.819Z,12068.00
2023-03-13T10:06:44.819Z,10992.00
2023-03-13T10:07:44.819Z,11116.00
2023-03-13T10:08:44.784Z,11060.00
2023-03-13T10:09:44.951Z,9020.00
2023-03-13T10:10:44.772Z,7572.00
2023-03-13T10:11:44.784Z,7684.00
2023-03-13T10:12:44.730Z,7540.00
2023-03-13T10:13:44.724Z,6996.00
2023-03-13T10:14:44.745Z,6516.00
2023-03-13T10:15:44.754Z,6672.00
2023-03-13T10:16:44.697Z,6744.00
2023-03-13T10:17:44.709Z,6304.00
2023-03-13T10:18:44.680Z,6336.00
2023-03-13T10:19:44.703Z,5964.00
2023-03-13T10:20:44.648Z,6592.00
2023-03-13T10:21:44.627Z,7684.00
2023-03-13T10:22:44.630Z,7256.00
2023-03-13T10:23:44.630Z,7032.00
2023-03-13T10:24:44.633Z,6632.00
2023-03-13T10:25:44.592Z,6620.00
2023-03-13T10:26:44.579Z,6728.00
2023-03-13T10:27:44.584Z,7156.00
2023-03-13T10:28:44.575Z,7696.00
2023-03-13T10:29:44.592Z,8284.00
2023-03-13T10:30:44.527Z,8888.00
2023-03-13T10:31:44.641Z,8920.00
2023-03-13T10:32:44.553Z,8372.00
2023-03-13T10:33:44.522Z,8008.00
2023-03-13T10:34:44.567Z,8792.00
2023-03-13T10:35:44.537Z,9600.00
2023-03-13T10:36:44.477Z,9972.00
2023-03-13T10:37:44.465Z,11332.00
2023-03-13T10:38:44.444Z,9856.00
2023-03-13T10:39:44.532Z,8792.00
2023-03-13T10:40:44.396Z,11004.00
2023-03-13T10:41:44.455Z,11876.00
2023-03-13T10:42:44.368Z,11448.00
2023-03-13T10:43:44.370Z,10940.00
2023-03-13T10:44:44.400Z,11272.00
2023-03-13T10:45:44.359Z,12268.00
2023-03-13T10:46:44.440Z,12932.00
2023-03-13T10:47:44.354Z,13572.00
2023-03-13T10:48:44.332Z,12484.00
2023-03-13T10:49:44.368Z,12080.00
2023-03-13T10:50:44.320Z,12124.00
2023-03-13T10:51:44.293Z,12984.00
2023-03-13T10:52:44.288Z,13504.00
2023-03-13T10:53:44.275Z,13680.00
2023-03-13T10:54:44.292Z,13400.00
2023-03-13T10:55:44.242Z,13988.00
2023-03-13T10:56:44.229Z,13224.00
2023-03-13T10:57:44.240Z,13888.00
2023-03-13T10:58:44.219Z,13252.00
2023-03-13T10:59:44.252Z,12172.00
2023-03-13T11:00:44.197Z,11756.00
2023-03-13T11:01:44.193Z,11844.00
2023-03-13T11:02:44.362Z,11152.00
2023-03-13T11:03:44.221Z,12572.00
2023-03-13T11:04:44.178Z,11952.00
2023-03-13T11:05:44.146Z,11692.00
2023-03-13T11:06:44.113Z,10816.00
2023-03-13T11:07:44.106Z,10720.00
2023-03-13T11:08:44.115Z,9416.00
2023-03-13T11:09:44.192Z,8572.00
2023-03-13T11:10:44.069Z,8208.00
2023-03-13T11:11:44.111Z,7844.00
2023-03-13T11:12:44.048Z,8164.00
2023-03-13T11:13:44.031Z,9744.00
2023-03-13T11:14:44.069Z,11512.00
2023-03-13T11:15:44.005Z,13404.00
2023-03-13T11:16:44.041Z,13756.00
2023-03-13T11:17:44.010Z,13496.00
2023-03-13T11:18:43.989Z,13192.00
2023-03-13T11:19:44.029Z,12760.00
2023-03-13T11:20:43.955Z,12124.00
2023-03-13T11:21:43.981Z,11688.00
2023-03-13T11:22:43.926Z,10520.00
2023-03-13T11:23:43.952Z,9876.00
2023-03-13T11:24:43.946Z,10864.00
2023-03-13T11:25:43.916Z,12480.00
2023-03-13T11:26:55.104Z,13612.00
2023-03-13T11:27:44.901Z,13940.00
2023-03-13T11:28:43.868Z,13272.00
2023-03-13T11:29:43.938Z,13396.00
2023-03-13T11:30:43.862Z,13572.00
2023-03-13T11:31:43.923Z,12064.00
2023-03-13T11:32:43.845Z,11488.00
2023-03-13T11:33:43.819Z,11824.00
2023-03-13T11:34:43.824Z,11804.00
2023-03-13T11:35:43.892Z,11788.00
2023-03-13T11:36:43.780Z,12204.00
2023-03-13T11:37:43.783Z,13192.00
2023-03-13T11:38:43.754Z,13512.00
2023-03-13T11:39:43.759Z,12876.00
2023-03-13T11:40:43.789Z,13344.00
2023-03-13T11:41:43.786Z,13104.00
2023-03-13T11:42:43.747Z,13016.00
2023-03-13T11:43:43.688Z,13304.00
2023-03-13T11:44:43.680Z,13328.00
2023-03-13T11:45:43.749Z,14112.00
2023-03-13T11:46:43.819Z,15308.00
2023-03-13T11:47:43.663Z,15992.00
2023-03-13T11:48:43.661Z,16456.00
2023-03-13T11:49:43.632Z,16656.00
2023-03-13T11:50:43.665Z,16776.00
2023-03-13T11:51:43.651Z,16996.00
2023-03-13T11:52:43.601Z,17340.00
2023-03-13T11:53:43.580Z,18176.00
2023-03-13T11:54:43.583Z,19200.00
2023-03-13T11:55:43.629Z,19872.00
2023-03-13T11:56:43.546Z,19872.00
2023-03-13T11:57:43.538Z,20320.00
2023-03-13T11:58:43.536Z,21312.00
2023-03-13T11:59:43.515Z,21888.00
2023-03-13T12:00:43.591Z,22784.00
2023-03-13T12:01:45.522Z,23584.00
2023-03-13T12:02:43.548Z,24416.00
2023-03-13T12:03:43.567Z,24800.00
2023-03-13T12:04:43.656Z,24960.00
2023-03-13T12:05:43.501Z,25248.00
2023-03-13T12:06:43.424Z,26592.00
2023-03-13T12:07:43.433Z,29312.00
2023-03-13T12:08:43.406Z,30848.00
2023-03-13T12:09:43.423Z,33088.00
2023-03-13T12:10:43.428Z,31552.00
2023-03-13T12:11:43.373Z,29504.00
2023-03-13T12:12:43.383Z,28096.00
2023-03-13T12:13:43.365Z,28256.00
2023-03-13T12:14:43.331Z,28800.00
2023-03-13T12:15:43.362Z,29184.00
2023-03-13T12:16:43.380Z,30272.00
2023-03-13T12:17:43.523Z,30720.00
2023-03-13T12:18:43.298Z,29952.00
2023-03-13T12:19:43.299Z,28960.00
2023-03-13T12:20:43.316Z,29408.00
2023-03-13T12:21:43.344Z,30784.00
2023-03-13T12:22:43.238Z,30656.00
2023-03-13T12:23:43.294Z,28704.00
2023-03-13T12:24:43.244Z,30784.00
2023-03-13T12:25:43.304Z,34784.00
2023-03-13T12:26:43.272Z,43776.00
2023-03-13T12:27:43.214Z,41600.00
2023-03-13T12:28:43.174Z,39104.00
2023-03-13T12:29:43.193Z,37408.00
2023-03-13T12:30:43.260Z,34880.00
2023-03-13T12:31:43.156Z,42304.00
2023-03-13T12:32:43.237Z,34368.00